createdAt,value
2018-07-04T00:00:06.172Z,15.31
2018-07-04T00:01:05.986Z,15.31
2018-07-04T00:02:06.263Z,15.31
2018-07-04T00:03:06.270Z,15.25
2018-07-04T00:04:06.094Z,15.25
2018-07-04T00:05:06.094Z,15.25
2018-07-04T00:06:06.270Z,15.19
2018-07-04T00:07:07.384Z,15.19
2018-07-04T00:08:10.976Z,15.19
2018-07-04T00:09:06.339Z,15.19
2018-07-04T00:10:05.501Z,15.19
2018-07-04T00:11:06.108Z,15.12
2018-07-04T00:12:05.786Z,15.12
2018-07-04T00:13:06.263Z,15.12
2018-07-04T00:14:06.367Z,15.06
2018-07-04T00:15:06.360Z,15.06
2018-07-04T00:16:06.097Z,15.06
2018-07-04T00:17:05.801Z,15.00
2018-07-04T00:18:06.257Z,15.00
2018-07-04T00:19:05.885Z,14.94
2018-07-04T00:20:05.851Z,14.94
2018-07-04T00:21:05.613Z,14.94
2018-07-04T00:22:06.025Z,14.94
2018-07-04T00:23:05.380Z,14.94
2018-07-04T00:24:10.852Z,14.88
2018-07-04T00:25:06.343Z,14.88
2018-07-04T00:26:06.335Z,14.88
2018-07-04T00:27:05.866Z,14.88
2018-07-04T00:28:06.665Z,14.81
2018-07-04T00:29:05.776Z,14.81
2018-07-04T00:30:07.242Z,14.81
2018-07-04T00:31:06.009Z,14.81
2018-07-04T00:32:06.293Z,14.75
2018-07-04T00:33:05.856Z,14.75
2018-07-04T00:34:05.838Z,14.75
2018-07-04T00:35:06.498Z,14.75
2018-07-04T00:36:05.773Z,14.75
2018-07-04T00:37:06.531Z,14.69
2018-07-04T00:38:06.024Z,14.69
2018-07-04T00:39:06.891Z,14.69
2018-07-04T00:40:05.693Z,14.69
2018-07-04T00:41:06.338Z,14.62
2018-07-04T00:42:05.943Z,14.62
2018-07-04T00:43:06.322Z,14.62
2018-07-04T00:44:06.521Z,14.56
2018-07-04T00:45:05.975Z,14.56
2018-07-04T00:46:06.641Z,14.50
2018-07-04T00:47:05.943Z,14.50
2018-07-04T00:48:05.973Z,14.44
2018-07-04T00:49:05.824Z,14.44
2018-07-04T00:50:06.335Z,14.44
2018-07-04T00:51:06.158Z,14.44
2018-07-04T00:52:05.746Z,14.44
2018-07-04T00:53:06.100Z,14.44
2018-07-04T00:54:06.505Z,14.38
2018-07-04T00:55:06.641Z,14.38
2018-07-04T00:56:11.341Z,14.38
2018-07-04T00:57:05.615Z,14.38
2018-07-04T00:58:05.934Z,14.31
2018-07-04T00:59:06.334Z,14.31
2018-07-04T01:00:05.935Z,14.25
2018-07-04T01:01:05.558Z,14.25
2018-07-04T01:02:06.355Z,14.25
2018-07-04T01:03:06.234Z,14.25
2018-07-04T01:04:06.341Z,14.25
2018-07-04T01:05:05.854Z,14.25
2018-07-04T01:06:05.780Z,14.19
2018-07-04T01:07:06.428Z,14.19
2018-07-04T01:08:11.663Z,14.12
2018-07-04T01:09:06.350Z,14.12
2018-07-04T01:10:06.104Z,14.12
2018-07-04T01:11:06.253Z,14.06
2018-07-04T01:12:11.125Z,14.06
2018-07-04T01:13:06.581Z,14.00
2018-07-04T01:14:06.017Z,14.00
2018-07-04T01:15:05.466Z,14.00
2018-07-04T01:16:05.752Z,14.00
2018-07-04T01:17:05.705Z,14.00
2018-07-04T01:18:06.335Z,13.94
2018-07-04T01:19:06.206Z,13.94
2018-07-04T01:20:06.530Z,13.94
2018-07-04T01:21:11.099Z,13.94
2018-07-04T01:22:06.093Z,13.88
2018-07-04T01:23:11.281Z,13.88
2018-07-04T01:24:05.549Z,13.88
2018-07-04T01:25:06.101Z,13.81
2018-07-04T01:26:10.631Z,13.81
2018-07-04T01:27:05.929Z,13.75
2018-07-04T01:28:05.951Z,13.75
2018-07-04T01:29:05.368Z,13.75
2018-07-04T01:30:05.696Z,13.75
2018-07-04T01:31:06.483Z,13.75
2018-07-04T01:32:06.412Z,13.69
2018-07-04T01:33:05.941Z,13.69
2018-07-04T01:34:06.015Z,13.69
2018-07-04T01:35:05.960Z,13.69
2018-07-04T01:36:06.113Z,13.62
2018-07-04T01:37:05.951Z,13.62
2018-07-04T01:38:06.329Z,13.62
2018-07-04T01:39:06.182Z,13.56
2018-07-04T01:40:05.643Z,13.56
2018-07-04T01:41:05.776Z,13.56
2018-07-04T01:42:05.935Z,13.56
2018-07-04T01:43:05.848Z,13.56
2018-07-04T01:44:06.114Z,13.50
2018-07-04T01:45:06.796Z,13.50
2018-07-04T01:46:06.139Z,13.50
2018-07-04T01:47:06.319Z,13.44
2018-07-04T01:48:05.835Z,13.44
2018-07-04T01:49:05.614Z,13.44
2018-07-04T01:50:06.333Z,13.44
2018-07-04T01:51:05.637Z,13.38
2018-07-04T01:52:05.589Z,13.38
2018-07-04T01:53:05.854Z,13.38
2018-07-04T01:54:06.354Z,13.38
2018-07-04T01:55:06.216Z,13.31
2018-07-04T01:56:05.984Z,13.31
2018-07-04T01:57:05.630Z,13.31
2018-07-04T01:58:05.793Z,13.25
2018-07-04T01:59:05.792Z,13.25
2018-07-04T02:00:06.533Z,13.25
2018-07-04T02:01:06.576Z,13.25
2018-07-04T02:02:06.409Z,13.25
2018-07-04T02:03:06.172Z,13.25
2018-07-04T02:04:06.185Z,13.25
2018-07-04T02:05:05.937Z,13.19
2018-07-04T02:06:06.414Z,13.19
2018-07-04T02:07:06.333Z,13.19
2018-07-04T02:08:05.610Z,13.19
2018-07-04T02:09:05.854Z,13.12
2018-07-04T02:10:06.222Z,13.12
2018-07-04T02:11:05.620Z,13.12
2018-07-04T02:12:06.010Z,13.12
2018-07-04T02:13:10.743Z,13.06
2018-07-04T02:14:05.945Z,13.06
2018-07-04T02:15:06.007Z,13.06
2018-07-04T02:16:06.253Z,13.00
2018-07-04T02:17:05.771Z,12.94
2018-07-04T02:18:06.095Z,12.94
2018-07-04T02:19:06.033Z,12.94
2018-07-04T02:20:05.924Z,12.94
2018-07-04T02:21:06.092Z,12.94
2018-07-04T02:22:06.094Z,12.94
2018-07-04T02:23:06.395Z,12.88
2018-07-04T02:24:10.953Z,12.88
2018-07-04T02:25:05.557Z,12.94
2018-07-04T02:26:06.292Z,12.94
2018-07-04T02:27:06.368Z,12.88
2018-07-04T02:28:05.934Z,12.88
2018-07-04T02:29:06.334Z,12.88
2018-07-04T02:30:05.821Z,12.81
2018-07-04T02:31:06.049Z,12.81
2018-07-04T02:32:05.852Z,12.81
2018-07-04T02:33:05.382Z,12.81
2018-07-04T02:34:05.692Z,12.75
2018-07-04T02:35:06.371Z,12.75
2018-07-04T02:36:05.774Z,12.75
2018-07-04T02:37:11.336Z,12.75
2018-07-04T02:38:05.798Z,12.69
2018-07-04T02:39:05.756Z,12.69
2018-07-04T02:40:05.524Z,12.69
2018-07-04T02:41:05.754Z,12.69
2018-07-04T02:42:05.456Z,12.69
2018-07-04T02:43:05.534Z,12.62
2018-07-04T02:44:06.369Z,12.62
2018-07-04T02:45:06.051Z,12.62
2018-07-04T02:46:11.044Z,12.62
2018-07-04T02:47:06.235Z,12.56
2018-07-04T02:48:06.638Z,12.56
2018-07-04T02:49:06.090Z,12.56
2018-07-04T02:50:05.864Z,12.56
2018-07-04T02:51:05.851Z,12.50
2018-07-04T02:52:10.984Z,12.50
2018-07-04T02:53:06.109Z,12.50
2018-07-04T02:54:06.398Z,12.50
2018-07-04T02:55:11.275Z,12.50
2018-07-04T02:56:05.931Z,12.50
2018-07-04T02:57:05.615Z,12.50
2018-07-04T02:58:06.010Z,12.50
2018-07-04T02:59:06.344Z,12.50
2018-07-04T03:00:06.347Z,12.50
2018-07-04T03:01:06.339Z,12.44
2018-07-04T03:02:06.415Z,12.44
2018-07-04T03:03:06.802Z,12.44
2018-07-04T03:04:11.513Z,12.44
2018-07-04T03:05:06.489Z,12.44
2018-07-04T03:06:06.881Z,12.44
2018-07-04T03:07:06.409Z,12.44
2018-07-04T03:08:06.010Z,12.38
2018-07-04T03:09:06.094Z,12.38
2018-07-04T03:10:06.074Z,12.38
2018-07-04T03:11:11.030Z,12.38
2018-07-04T03:12:06.254Z,12.38
2018-07-04T03:13:06.443Z,12.38
2018-07-04T03:14:05.609Z,12.38
2018-07-04T03:15:06.280Z,12.38
2018-07-04T03:16:10.534Z,12.38
2018-07-04T03:17:06.161Z,12.38
2018-07-04T03:18:05.592Z,12.38
2018-07-04T03:19:06.019Z,12.44
2018-07-04T03:20:06.028Z,12.38
2018-07-04T03:21:06.019Z,12.38
2018-07-04T03:22:06.419Z,12.38
2018-07-04T03:23:05.539Z,12.38
2018-07-04T03:24:05.942Z,12.38
2018-07-04T03:25:05.619Z,12.38
2018-07-04T03:26:10.669Z,12.38
2018-07-04T03:27:05.931Z,12.38
2018-07-04T03:28:07.207Z,12.38
2018-07-04T03:29:06.524Z,12.38
2018-07-04T03:30:05.620Z,12.38
2018-07-04T03:31:05.706Z,12.38
2018-07-04T03:32:06.170Z,12.38
2018-07-04T03:33:06.850Z,12.38
2018-07-04T03:34:05.781Z,12.38
2018-07-04T03:35:05.971Z,12.38
2018-07-04T03:36:05.402Z,12.38
2018-07-04T03:37:06.336Z,12.38
2018-07-04T03:38:06.167Z,12.44
2018-07-04T03:39:05.618Z,12.38
2018-07-04T03:40:05.458Z,12.44
2018-07-04T03:41:05.858Z,12.44
2018-07-04T03:42:05.930Z,12.50
2018-07-04T03:43:06.100Z,12.56
2018-07-04T03:44:06.144Z,12.56
2018-07-04T03:45:06.411Z,12.62
2018-07-04T03:46:05.825Z,12.69
2018-07-04T03:47:05.608Z,12.69
2018-07-04T03:48:05.544Z,12.75
2018-07-04T03:49:05.606Z,12.81
2018-07-04T03:50:05.761Z,12.81
2018-07-04T03:51:05.766Z,12.88
2018-07-04T03:52:06.015Z,12.94
2018-07-04T03:53:06.119Z,13.00
2018-07-04T03:54:06.057Z,13.06
2018-07-04T03:55:06.447Z,13.12
2018-07-04T03:56:06.369Z,13.25
2018-07-04T03:57:05.641Z,13.38
2018-07-04T03:58:05.715Z,13.44
2018-07-04T03:59:05.771Z,13.56
2018-07-04T04:00:06.214Z,13.69
2018-07-04T04:01:05.696Z,13.81
2018-07-04T04:02:05.619Z,13.94
2018-07-04T04:03:10.702Z,14.06
2018-07-04T04:04:06.179Z,14.19
2018-07-04T04:05:05.527Z,14.31
2018-07-04T04:06:11.072Z,14.50
2018-07-04T04:07:05.624Z,14.62
2018-07-04T04:08:11.215Z,14.81
2018-07-04T04:09:05.627Z,14.94
2018-07-04T04:10:05.706Z,15.12
2018-07-04T04:11:05.930Z,15.31
2018-07-04T04:12:05.997Z,15.44
2018-07-04T04:13:05.928Z,15.62
2018-07-04T04:14:06.374Z,15.81
2018-07-04T04:15:05.535Z,16.00
2018-07-04T04:16:05.787Z,16.19
2018-07-04T04:17:05.735Z,16.31
2018-07-04T04:18:07.166Z,16.56
2018-07-04T04:19:06.094Z,16.75
2018-07-04T04:20:05.955Z,16.88
2018-07-04T04:21:06.036Z,17.06
2018-07-04T04:22:06.419Z,17.25
2018-07-04T04:23:06.170Z,17.44
2018-07-04T04:24:06.329Z,17.62
2018-07-04T04:25:05.929Z,17.81
2018-07-04T04:26:11.205Z,18.00
2018-07-04T04:27:05.890Z,18.12
2018-07-04T04:28:05.617Z,18.31
2018-07-04T04:29:05.855Z,18.50
2018-07-04T04:30:05.778Z,18.69
2018-07-04T04:31:06.356Z,18.81
2018-07-04T04:32:06.248Z,19.00
2018-07-04T04:33:06.239Z,19.19
2018-07-04T04:34:11.049Z,19.38
2018-07-04T04:35:11.415Z,19.56
2018-07-04T04:36:06.353Z,19.75
2018-07-04T04:37:06.505Z,19.94
2018-07-04T04:38:06.041Z,20.12
2018-07-04T04:39:06.188Z,20.31
2018-07-04T04:40:06.256Z,20.50
2018-07-04T04:41:05.611Z,20.69
2018-07-04T04:42:05.373Z,20.88
2018-07-04T04:43:06.410Z,21.06
2018-07-04T04:44:05.691Z,21.25
2018-07-04T04:45:05.789Z,21.44
2018-07-04T04:46:05.939Z,21.62
2018-07-04T04:47:05.696Z,21.81
2018-07-04T04:48:06.257Z,21.94
2018-07-04T04:49:06.175Z,22.12
2018-07-04T04:50:06.424Z,22.31
2018-07-04T04:51:06.474Z,22.50
2018-07-04T04:52:05.997Z,22.69
2018-07-04T04:53:06.305Z,22.88
2018-07-04T04:54:05.878Z,23.06
2018-07-04T04:55:06.522Z,23.25
2018-07-04T04:56:06.054Z,23.44
2018-07-04T04:57:06.347Z,23.62
2018-07-04T04:58:06.297Z,23.81
2018-07-04T04:59:05.898Z,23.94
2018-07-04T05:00:05.539Z,24.12
2018-07-04T05:01:06.260Z,24.31
2018-07-04T05:02:06.459Z,24.50
2018-07-04T05:03:05.700Z,24.69
2018-07-04T05:04:06.510Z,24.81
2018-07-04T05:05:05.965Z,25.00
2018-07-04T05:06:05.933Z,25.19
2018-07-04T05:07:06.253Z,25.31
2018-07-04T05:08:05.883Z,25.31
2018-07-04T05:09:06.029Z,25.69
2018-07-04T05:10:05.610Z,25.81
2018-07-04T05:11:06.383Z,26.00
2018-07-04T05:12:11.187Z,26.12
2018-07-04T05:13:06.431Z,26.25
2018-07-04T05:14:05.731Z,26.44
2018-07-04T05:15:06.647Z,26.56
2018-07-04T05:16:06.186Z,26.69
2018-07-04T05:17:06.335Z,26.88
2018-07-04T05:18:06.426Z,27.00
2018-07-04T05:19:06.333Z,27.12
2018-07-04T05:20:06.404Z,27.31
2018-07-04T05:21:06.261Z,27.44
2018-07-04T05:22:06.441Z,27.56
2018-07-04T05:23:06.722Z,27.75
2018-07-04T05:24:05.851Z,27.88
2018-07-04T05:25:05.972Z,28.06
2018-07-04T05:26:06.180Z,28.19
2018-07-04T05:27:06.017Z,28.38
2018-07-04T05:28:07.387Z,28.62
2018-07-04T05:29:05.535Z,28.88
2018-07-04T05:30:06.024Z,29.19
2018-07-04T05:31:05.455Z,29.50
2018-07-04T05:32:06.326Z,29.75
2018-07-04T05:33:06.253Z,30.00
2018-07-04T05:34:06.112Z,30.25
2018-07-04T05:35:07.083Z,30.56
2018-07-04T05:36:10.808Z,30.75
2018-07-04T05:37:06.032Z,31.00
2018-07-04T05:38:06.092Z,31.19
2018-07-04T05:39:05.699Z,31.44
2018-07-04T05:40:06.021Z,31.69
2018-07-04T05:41:06.016Z,31.94
2018-07-04T05:42:06.239Z,32.06
2018-07-04T05:43:05.621Z,32.19
2018-07-04T05:44:06.033Z,32.31
2018-07-04T05:45:06.167Z,32.44
2018-07-04T05:46:10.870Z,32.62
2018-07-04T05:47:06.178Z,32.81
2018-07-04T05:48:06.183Z,32.88
2018-07-04T05:49:05.785Z,33.00
2018-07-04T05:50:05.961Z,33.06
2018-07-04T05:51:11.196Z,33.19
2018-07-04T05:52:05.700Z,33.19
2018-07-04T05:53:05.954Z,33.31
2018-07-04T05:54:06.342Z,33.38
2018-07-04T05:55:07.154Z,33.44
2018-07-04T05:56:06.461Z,33.44
2018-07-04T05:57:05.968Z,33.44
2018-07-04T05:58:06.341Z,33.50
2018-07-04T05:59:05.812Z,33.50
2018-07-04T06:00:05.548Z,33.50
2018-07-04T06:01:05.898Z,33.50
2018-07-04T06:02:05.704Z,33.44
2018-07-04T06:03:06.689Z,33.31
2018-07-04T06:04:05.680Z,33.38
2018-07-04T06:05:10.984Z,33.38
2018-07-04T06:06:06.387Z,33.38
2018-07-04T06:07:06.569Z,33.25
2018-07-04T06:08:05.948Z,33.19
2018-07-04T06:09:05.818Z,33.06
2018-07-04T06:10:05.961Z,32.88
2018-07-04T06:11:10.557Z,32.81
2018-07-04T06:12:10.702Z,32.69
2018-07-04T06:13:06.027Z,32.62
2018-07-04T06:14:06.427Z,32.62
2018-07-04T06:15:06.184Z,32.62
2018-07-04T06:16:11.343Z,32.62
2018-07-04T06:17:06.042Z,32.62
2018-07-04T06:18:05.762Z,32.56
2018-07-04T06:19:06.255Z,32.56
2018-07-04T06:20:05.787Z,32.62
2018-07-04T06:21:06.344Z,32.69
2018-07-04T06:22:05.383Z,32.75
2018-07-04T06:23:06.265Z,32.75
2018-07-04T06:24:05.616Z,32.81
2018-07-04T06:25:06.306Z,32.88
2018-07-04T06:26:05.880Z,32.94
2018-07-04T06:27:06.411Z,33.06
2018-07-04T06:28:05.640Z,33.06
2018-07-04T06:29:06.345Z,33.12
2018-07-04T06:30:06.134Z,33.19
2018-07-04T06:31:05.947Z,33.25
2018-07-04T06:32:06.351Z,33.38
2018-07-04T06:33:10.989Z,33.44
2018-07-04T06:34:05.464Z,33.44
2018-07-04T06:35:06.354Z,33.56
2018-07-04T06:36:05.940Z,33.62
2018-07-04T06:37:05.807Z,33.69
2018-07-04T06:38:10.498Z,33.88
2018-07-04T06:39:06.090Z,33.81
2018-07-04T06:40:05.401Z,33.88
2018-07-04T06:41:06.101Z,33.88
2018-07-04T06:42:05.960Z,33.88
2018-07-04T06:43:06.405Z,34.00
2018-07-04T06:44:06.595Z,34.06
2018-07-04T06:45:05.807Z,34.12
2018-07-04T06:46:06.457Z,34.19
2018-07-04T06:47:05.778Z,34.19
2018-07-04T06:48:06.116Z,34.25
2018-07-04T06:49:06.237Z,34.25
2018-07-04T06:50:05.942Z,34.31
2018-07-04T06:51:05.962Z,34.38
2018-07-04T06:52:06.264Z,34.38
2018-07-04T06:53:06.508Z,34.44
2018-07-04T06:54:05.773Z,34.50
2018-07-04T06:55:05.742Z,34.50
2018-07-04T06:56:06.523Z,34.56
2018-07-04T06:57:05.861Z,34.62
2018-07-04T06:58:05.885Z,34.69
2018-07-04T06:59:05.468Z,34.69
2018-07-04T07:00:06.403Z,34.69
2018-07-04T07:01:05.717Z,34.75
2018-07-04T07:02:06.185Z,34.75
2018-07-04T07:03:05.610Z,34.75
2018-07-04T07:04:06.724Z,34.75
2018-07-04T07:05:05.960Z,34.69
2018-07-04T07:06:06.040Z,34.62
2018-07-04T07:07:06.186Z,34.56
2018-07-04T07:08:05.900Z,34.50
2018-07-04T07:09:05.748Z,34.44
2018-07-04T07:10:06.206Z,34.38
2018-07-04T07:11:05.788Z,34.38
2018-07-04T07:12:05.704Z,34.38
2018-07-04T07:13:11.308Z,34.38
2018-07-04T07:14:05.977Z,34.31
2018-07-04T07:15:05.630Z,34.31
2018-07-04T07:16:06.278Z,34.31
2018-07-04T07:17:05.879Z,34.31
2018-07-04T07:18:06.017Z,34.25
2018-07-04T07:19:05.625Z,34.25
2018-07-04T07:20:06.270Z,34.31
2018-07-04T07:21:06.333Z,34.31
2018-07-04T07:22:06.109Z,34.38
2018-07-04T07:23:06.609Z,34.38
2018-07-04T07:24:05.978Z,34.38
2018-07-04T07:25:05.825Z,34.38
2018-07-04T07:26:05.863Z,34.38
2018-07-04T07:27:06.067Z,34.38
2018-07-04T07:28:06.344Z,34.38
2018-07-04T07:29:06.300Z,34.38
2018-07-04T07:30:06.394Z,34.44
2018-07-04T07:31:06.323Z,34.44
2018-07-04T07:32:05.835Z,34.44
2018-07-04T07:33:05.631Z,34.44
2018-07-04T07:34:05.881Z,34.50
2018-07-04T07:35:06.085Z,34.50
2018-07-04T07:36:06.299Z,34.50
2018-07-04T07:37:06.149Z,34.50
2018-07-04T07:38:05.561Z,34.50
2018-07-04T07:39:05.473Z,34.44
2018-07-04T07:40:05.709Z,34.38
2018-07-04T07:41:11.425Z,34.38
2018-07-04T07:42:05.948Z,34.38
2018-07-04T07:43:06.023Z,34.38
2018-07-04T07:44:06.115Z,34.38
2018-07-04T07:45:06.123Z,34.31
2018-07-04T07:46:06.196Z,34.31
2018-07-04T07:47:05.709Z,34.31
2018-07-04T07:48:06.335Z,34.31
2018-07-04T07:49:06.263Z,34.25
2018-07-04T07:50:05.628Z,34.25
2018-07-04T07:51:05.434Z,34.19
2018-07-04T07:52:05.957Z,34.19
2018-07-04T07:53:06.481Z,34.12
2018-07-04T07:54:05.519Z,34.12
2018-07-04T07:55:06.275Z,34.06
2018-07-04T07:56:05.618Z,34.06
2018-07-04T07:57:05.786Z,34.00
2018-07-04T07:58:06.071Z,34.00
2018-07-04T07:59:06.308Z,33.94
2018-07-04T08:00:06.020Z,33.88
2018-07-04T08:01:06.112Z,33.88
2018-07-04T08:02:06.254Z,33.75
2018-07-04T08:03:06.249Z,33.69
2018-07-04T08:04:06.020Z,33.62
2018-07-04T08:05:06.438Z,33.62
2018-07-04T08:06:06.197Z,33.56
2018-07-04T08:07:05.539Z,33.56
2018-07-04T08:08:06.654Z,33.50
2018-07-04T08:09:06.092Z,33.44
2018-07-04T08:10:06.726Z,33.38
2018-07-04T08:11:06.175Z,33.31
2018-07-04T08:12:06.026Z,33.25
2018-07-04T08:13:10.879Z,33.25
2018-07-04T08:14:06.294Z,33.19
2018-07-04T08:15:06.273Z,33.12
2018-07-04T08:16:06.586Z,33.12
2018-07-04T08:17:05.716Z,33.06
2018-07-04T08:18:06.605Z,33.00
2018-07-04T08:19:06.704Z,32.94
2018-07-04T08:20:06.461Z,32.94
2018-07-04T08:21:05.809Z,32.88
2018-07-04T08:22:06.189Z,32.81
2018-07-04T08:23:05.962Z,32.75
2018-07-04T08:24:06.259Z,32.75
2018-07-04T08:25:05.792Z,32.69
2018-07-04T08:26:05.774Z,32.62
2018-07-04T08:27:06.604Z,32.56
2018-07-04T08:28:05.545Z,32.56
2018-07-04T08:29:06.121Z,32.50
2018-07-04T08:30:05.678Z,32.44
2018-07-04T08:31:06.083Z,32.38
2018-07-04T08:32:06.462Z,32.31
2018-07-04T08:33:06.012Z,32.25
2018-07-04T08:34:06.112Z,32.25
2018-07-04T08:35:06.418Z,32.19
2018-07-04T08:36:05.615Z,32.19
2018-07-04T08:37:05.943Z,32.12
2018-07-04T08:38:05.898Z,32.06
2018-07-04T08:39:06.014Z,32.06
2018-07-04T08:40:05.593Z,32.06
2018-07-04T08:41:06.167Z,32.06
2018-07-04T08:42:05.459Z,32.06
2018-07-04T08:43:05.617Z,32.06
2018-07-04T08:44:05.703Z,32.00
2018-07-04T08:45:06.019Z,32.00
2018-07-04T08:46:05.868Z,32.00
2018-07-04T08:47:10.584Z,32.00
2018-07-04T08:48:06.098Z,31.94
2018-07-04T08:49:06.021Z,31.94
2018-07-04T08:50:10.859Z,31.94
2018-07-04T08:51:06.256Z,31.94
2018-07-04T08:52:06.176Z,31.94
2018-07-04T08:53:05.868Z,31.88
2018-07-04T08:54:06.297Z,31.88
2018-07-04T08:55:05.839Z,31.88
2018-07-04T08:56:05.910Z,31.88
2018-07-04T08:57:06.136Z,31.88
2018-07-04T08:58:06.439Z,31.88
2018-07-04T08:59:06.501Z,31.88
2018-07-04T09:00:05.614Z,31.81
2018-07-04T09:01:11.111Z,31.81
2018-07-04T09:02:05.457Z,31.81
2018-07-04T09:03:06.537Z,31.81
2018-07-04T09:04:06.017Z,31.81
2018-07-04T09:05:06.106Z,31.88
2018-07-04T09:06:05.605Z,31.88
2018-07-04T09:07:06.237Z,31.88
2018-07-04T09:08:06.275Z,31.88
2018-07-04T09:09:06.167Z,31.94
2018-07-04T09:10:11.023Z,31.94
2018-07-04T09:11:06.339Z,31.94
2018-07-04T09:12:05.457Z,31.94
2018-07-04T09:13:05.915Z,31.94
2018-07-04T09:14:06.706Z,31.94
2018-07-04T09:15:06.458Z,31.94
2018-07-04T09:16:10.706Z,32.00
2018-07-04T09:17:05.936Z,32.00
2018-07-04T09:18:10.964Z,31.94
2018-07-04T09:19:06.382Z,31.88
2018-07-04T09:20:06.008Z,31.88
2018-07-04T09:21:06.618Z,31.88
2018-07-04T09:22:06.218Z,31.94
2018-07-04T09:23:11.461Z,31.94
2018-07-04T09:24:05.938Z,31.94
2018-07-04T09:25:10.742Z,31.94
2018-07-04T09:26:06.415Z,31.94
2018-07-04T09:27:05.564Z,31.94
2018-07-04T09:28:06.350Z,31.94
2018-07-04T09:29:06.264Z,31.88
2018-07-04T09:30:06.449Z,31.81
2018-07-04T09:31:06.142Z,31.75
2018-07-04T09:32:05.776Z,31.69
2018-07-04T09:33:06.417Z,31.62
2018-07-04T09:34:10.625Z,31.56
2018-07-04T09:35:05.764Z,31.50
2018-07-04T09:36:05.737Z,31.44
2018-07-04T09:37:06.261Z,31.38
2018-07-04T09:38:06.332Z,31.38
2018-07-04T09:39:05.608Z,31.31
2018-07-04T09:40:11.355Z,31.25
2018-07-04T09:41:05.854Z,31.19
2018-07-04T09:42:05.939Z,31.19
2018-07-04T09:43:05.929Z,31.19
2018-07-04T09:44:06.189Z,31.25
2018-07-04T09:45:05.938Z,31.25
2018-07-04T09:46:06.525Z,31.25
2018-07-04T09:47:05.769Z,31.31
2018-07-04T09:48:05.638Z,31.31
2018-07-04T09:49:05.935Z,31.31
2018-07-04T09:50:06.654Z,31.31
2018-07-04T09:51:06.124Z,31.38
2018-07-04T09:52:06.084Z,31.38
2018-07-04T09:53:07.554Z,31.38
2018-07-04T09:54:06.241Z,31.44
2018-07-04T09:55:05.540Z,31.44
2018-07-04T09:56:05.627Z,31.44
2018-07-04T09:57:05.541Z,31.44
2018-07-04T09:58:05.692Z,31.50
2018-07-04T09:59:06.464Z,31.50
2018-07-04T10:00:10.505Z,31.50
2018-07-04T10:01:05.774Z,31.50
2018-07-04T10:02:06.096Z,31.56
2018-07-04T10:03:06.503Z,31.56
2018-07-04T10:04:06.429Z,31.56
2018-07-04T10:05:06.241Z,31.56
2018-07-04T10:06:05.788Z,31.50
2018-07-04T10:07:06.114Z,31.50
2018-07-04T10:08:05.787Z,31.50
2018-07-04T10:09:05.631Z,31.50
2018-07-04T10:10:05.999Z,31.50
2018-07-04T10:11:05.682Z,31.50
2018-07-04T10:12:05.375Z,31.56
2018-07-04T10:13:06.349Z,31.56
2018-07-04T10:14:05.613Z,31.62
2018-07-04T10:15:05.925Z,31.62
2018-07-04T10:16:05.564Z,31.62
2018-07-04T10:17:06.565Z,31.62
2018-07-04T10:18:05.804Z,31.69
2018-07-04T10:19:07.549Z,31.69
2018-07-04T10:20:05.948Z,31.75
2018-07-04T10:21:06.245Z,31.75
2018-07-04T10:22:06.107Z,31.75
2018-07-04T10:23:06.090Z,31.75
2018-07-04T10:24:05.583Z,31.75
2018-07-04T10:25:06.007Z,31.81
2018-07-04T10:26:05.940Z,31.81
2018-07-04T10:27:05.774Z,31.81
2018-07-04T10:28:05.773Z,31.81
2018-07-04T10:29:06.201Z,31.81
2018-07-04T10:30:06.332Z,31.75
2018-07-04T10:31:05.672Z,31.69
2018-07-04T10:32:05.616Z,31.62
2018-07-04T10:33:06.191Z,31.62
2018-07-04T10:34:05.853Z,31.62
2018-07-04T10:35:05.462Z,31.69
2018-07-04T10:36:05.777Z,31.69
2018-07-04T10:37:06.032Z,31.75
2018-07-04T10:38:06.181Z,31.75
2018-07-04T10:39:06.015Z,31.75
2018-07-04T10:40:06.434Z,31.81
2018-07-04T10:41:05.544Z,31.81
2018-07-04T10:42:05.926Z,31.81
2018-07-04T10:43:05.740Z,31.81
2018-07-04T10:44:05.539Z,31.69
2018-07-04T10:45:16.363Z,31.75
2018-07-04T10:46:05.947Z,31.81
2018-07-04T10:47:06.713Z,31.88
2018-07-04T10:48:06.048Z,31.88
2018-07-04T10:49:06.346Z,31.94
2018-07-04T10:50:06.130Z,32.00
2018-07-04T10:51:05.939Z,32.00
2018-07-04T10:52:06.382Z,32.00
2018-07-04T10:53:05.871Z,31.94
2018-07-04T10:54:05.877Z,31.94
2018-07-04T10:55:05.923Z,32.00
2018-07-04T10:56:05.729Z,32.00
2018-07-04T10:57:06.196Z,32.00
2018-07-04T10:58:06.014Z,32.06
2018-07-04T10:59:06.348Z,32.06
2018-07-04T11:00:05.542Z,32.12
2018-07-04T11:01:11.133Z,32.12
2018-07-04T11:02:05.675Z,32.19
2018-07-04T11:03:06.569Z,32.25
2018-07-04T11:04:06.043Z,32.25
2018-07-04T11:05:05.860Z,32.25
2018-07-04T11:06:05.932Z,32.31
2018-07-04T11:07:05.466Z,32.31
2018-07-04T11:08:05.540Z,32.31
2018-07-04T11:09:06.523Z,32.38
2018-07-04T11:10:06.303Z,32.38
2018-07-04T11:11:06.512Z,32.44
2018-07-04T11:12:05.938Z,32.44
2018-07-04T11:13:05.789Z,32.50
2018-07-04T11:14:10.582Z,32.50
2018-07-04T11:15:06.020Z,32.56
2018-07-04T11:16:06.427Z,32.56
2018-07-04T11:17:06.337Z,32.56
2018-07-04T11:18:06.340Z,32.56
2018-07-04T11:19:06.417Z,32.56
2018-07-04T11:20:05.653Z,32.56
2018-07-04T11:21:11.279Z,32.56
2018-07-04T11:22:05.460Z,32.56
2018-07-04T11:23:05.499Z,32.56
2018-07-04T11:24:06.095Z,32.56
2018-07-04T11:25:10.708Z,32.56
2018-07-04T11:26:10.880Z,32.56
2018-07-04T11:27:06.280Z,32.56
2018-07-04T11:28:05.922Z,32.56
2018-07-04T11:29:06.264Z,32.62
2018-07-04T11:30:06.189Z,32.62
2018-07-04T11:31:06.423Z,32.62
2018-07-04T11:32:06.745Z,32.62
2018-07-04T11:33:06.098Z,32.62
2018-07-04T11:34:06.248Z,32.62
2018-07-04T11:35:06.031Z,32.69
2018-07-04T11:36:05.919Z,32.69
2018-07-04T11:37:06.262Z,32.69
2018-07-04T11:38:05.693Z,32.69
2018-07-04T11:39:06.261Z,32.69
2018-07-04T11:40:06.020Z,32.69
2018-07-04T11:41:06.035Z,32.69
2018-07-04T11:42:05.921Z,32.69
2018-07-04T11:43:06.174Z,32.62
2018-07-04T11:44:05.704Z,32.62
2018-07-04T11:45:05.377Z,32.62
2018-07-04T11:46:06.344Z,32.62
2018-07-04T11:47:11.125Z,32.62
2018-07-04T11:48:06.668Z,32.62
2018-07-04T11:49:05.460Z,32.69
2018-07-04T11:50:05.564Z,32.69
2018-07-04T11:51:05.619Z,32.69
2018-07-04T11:52:07.027Z,32.69
2018-07-04T11:53:06.338Z,32.69
2018-07-04T11:54:06.018Z,32.69
2018-07-04T11:55:05.481Z,32.69
2018-07-04T11:56:05.909Z,32.75
2018-07-04T11:57:06.516Z,32.75
2018-07-04T11:58:06.377Z,32.69
2018-07-04T11:59:05.471Z,32.69
2018-07-04T12:00:05.616Z,32.69
2018-07-04T12:01:10.654Z,32.69
2018-07-04T12:02:05.961Z,32.69
2018-07-04T12:03:06.516Z,32.69
2018-07-04T12:04:06.179Z,32.62
2018-07-04T12:05:06.273Z,32.62
2018-07-04T12:06:05.536Z,32.62
2018-07-04T12:07:05.981Z,32.56
2018-07-04T12:08:05.623Z,32.62
2018-07-04T12:09:05.647Z,32.62
2018-07-04T12:10:10.645Z,32.56
2018-07-04T12:11:05.801Z,32.50
2018-07-04T12:12:06.267Z,32.38
2018-07-04T12:13:10.964Z,32.38
2018-07-04T12:14:06.388Z,32.31
2018-07-04T12:15:06.265Z,32.31
2018-07-04T12:16:06.651Z,32.25
2018-07-04T12:17:05.781Z,32.25
2018-07-04T12:18:06.101Z,32.25
2018-07-04T12:19:06.037Z,32.25
2018-07-04T12:20:06.170Z,32.25
2018-07-04T12:21:06.175Z,32.25
2018-07-04T12:22:06.093Z,32.25
2018-07-04T12:23:05.848Z,32.31
2018-07-04T12:24:06.374Z,32.31
2018-07-04T12:25:05.958Z,32.31
2018-07-04T12:26:05.787Z,32.31
2018-07-04T12:27:06.261Z,32.38
2018-07-04T12:28:06.103Z,32.38
2018-07-04T12:29:06.331Z,32.38
2018-07-04T12:30:06.352Z,32.38
2018-07-04T12:31:06.234Z,32.38
2018-07-04T12:32:06.327Z,32.44
2018-07-04T12:33:05.609Z,32.44
2018-07-04T12:34:05.659Z,32.50
2018-07-04T12:35:05.789Z,32.50
2018-07-04T12:36:06.757Z,32.56
2018-07-04T12:37:06.115Z,32.56
2018-07-04T12:38:10.719Z,32.62
2018-07-04T12:39:05.861Z,32.62
2018-07-04T12:40:05.551Z,32.62
2018-07-04T12:41:06.095Z,32.62
2018-07-04T12:42:05.641Z,32.69
2018-07-04T12:43:11.214Z,32.69
2018-07-04T12:44:05.694Z,32.69
2018-07-04T12:45:06.799Z,32.69
2018-07-04T12:46:05.941Z,32.62
2018-07-04T12:47:06.231Z,32.69
2018-07-04T12:48:06.030Z,32.69
2018-07-04T12:49:06.033Z,32.62
2018-07-04T12:50:06.340Z,32.62
2018-07-04T12:51:05.838Z,32.62
2018-07-04T12:52:05.715Z,32.56